sensor_id;sensor_type;location;lat;lon;timestamp;P1;durP1;ratioP1;P2;durP2;ratioP2
27265;SDS011;14766;51.380;13.762;2023-05-10T00:01:53;3.33;;;2.42;;
27265;SDS011;14766;51.380;13.762;2023-05-10T00:04:20;3.00;;;2.10;;
27265;SDS011;14766;51.380;13.762;2023-05-10T00:06:49;2.92;;;2.30;;
27265;SDS011;14766;51.380;13.762;2023-05-10T00:09:16;3.53;;;2.35;;
27265;SDS011;14766;51.380;13.762;2023-05-10T00:11:43;3.97;;;2.20;;
27265;SDS011;14766;51.380;13.762;2023-05-10T00:14:11;4.10;;;2.60;;
27265;SDS011;14766;51.380;13.762;2023-05-10T00:16:38;2.50;;;2.10;;
27265;SDS011;14766;51.380;13.762;2023-05-10T00:19:06;2.63;;;2.00;;
27265;SDS011;14766;51.380;13.762;2023-05-10T00:21:33;2.20;;;2.00;;
27265;SDS011;14766;51.380;13.762;2023-05-10T00:24:00;2.97;;;2.42;;
27265;SDS011;14766;51.380;13.762;2023-05-10T00:26:27;3.65;;;2.20;;
27265;SDS011;14766;51.380;13.762;2023-05-10T00:28:55;2.83;;;2.42;;
27265;SDS011;14766;51.380;13.762;2023-05-10T00:31:23;3.55;;;2.30;;
27265;SDS011;14766;51.380;13.762;2023-05-10T00:33:50;2.78;;;2.20;;
27265;SDS011;14766;51.380;13.762;2023-05-10T00:36:17;3.42;;;2.47;;
27265;SDS011;14766;51.380;13.762;2023-05-10T00:38:45;3.38;;;2.38;;
27265;SDS011;14766;51.380;13.762;2023-05-10T00:41:12;3.58;;;2.30;;
27265;SDS011;14766;51.380;13.762;2023-05-10T00:46:18;3.03;;;2.10;;
27265;SDS011;14766;51.380;13.762;2023-05-10T00:48:45;2.85;;;1.92;;
27265;SDS011;14766;51.380;13.762;2023-05-10T00:51:13;3.90;;;2.25;;
27265;SDS011;14766;51.380;13.762;2023-05-10T00:53:40;2.80;;;2.00;;
27265;SDS011;14766;51.380;13.762;2023-05-10T00:56:07;3.15;;;2.30;;
27265;SDS011;14766;51.380;13.762;2023-05-10T00:58:35;3.03;;;1.92;;
27265;SDS011;14766;51.380;13.762;2023-05-10T01:01:02;2.50;;;2.30;;
27265;SDS011;14766;51.380;13.762;2023-05-10T01:03:30;3.50;;;2.03;;
27265;SDS011;14766;51.380;13.762;2023-05-10T01:05:58;3.83;;;2.20;;
27265;SDS011;14766;51.380;13.762;2023-05-10T01:08:25;2.60;;;1.98;;
27265;SDS011;14766;51.380;13.762;2023-05-10T01:10:55;1.92;;;1.70;;
27265;SDS011;14766;51.380;13.762;2023-05-10T01:13:33;2.67;;;2.30;;
27265;SDS011;14766;51.380;13.762;2023-05-10T01:16:02;2.28;;;1.90;;
27265;SDS011;14766;51.380;13.762;2023-05-10T01:18:30;2.88;;;1.90;;
27265;SDS011;14766;51.380;13.762;2023-05-10T01:21:14;2.47;;;2.22;;
27265;SDS011;14766;51.380;13.762;2023-05-10T01:26:56;2.20;;;2.00;;
27265;SDS011;14766;51.380;13.762;2023-05-10T01:35:58;2.33;;;2.13;;
27265;SDS011;14766;51.380;13.762;2023-05-10T01:38:22;2.75;;;2.10;;
27265;SDS011;14766;51.380;13.762;2023-05-10T01:41:17;2.60;;;1.90;;
27265;SDS011;14766;51.380;13.762;2023-05-10T01:46:37;2.45;;;1.85;;
27265;SDS011;14766;51.380;13.762;2023-05-10T01:49:09;3.33;;;2.00;;
27265;SDS011;14766;51.380;13.762;2023-05-10T01:51:47;2.22;;;2.00;;
27265;SDS011;14766;51.380;13.762;2023-05-10T01:54:19;3.00;;;2.20;;
27265;SDS011;14766;51.380;13.762;2023-05-10T01:56:49;2.25;;;1.92;;
27265;SDS011;14766;51.380;13.762;2023-05-10T01:59:23;2.80;;;1.92;;
27265;SDS011;14766;51.380;13.762;2023-05-10T02:01:57;2.00;;;1.77;;
27265;SDS011;14766;51.380;13.762;2023-05-10T02:04:26;1.85;;;1.60;;
27265;SDS011;14766;51.380;13.762;2023-05-10T02:06:54;3.20;;;2.10;;
27265;SDS011;14766;51.380;13.762;2023-05-10T02:09:22;4.43;;;2.05;;
27265;SDS011;14766;51.380;13.762;2023-05-10T02:11:51;2.28;;;1.90;;
27265;SDS011;14766;51.380;13.762;2023-05-10T02:14:20;2.15;;;1.80;;
27265;SDS011;14766;51.380;13.762;2023-05-10T02:16:49;2.53;;;1.88;;
27265;SDS011;14766;51.380;13.762;2023-05-10T02:19:17;3.97;;;2.30;;
27265;SDS011;14766;51.380;13.762;2023-05-10T02:21:46;1.77;;;1.63;;
27265;SDS011;14766;51.380;13.762;2023-05-10T02:24:14;2.15;;;1.95;;
27265;SDS011;14766;51.380;13.762;2023-05-10T02:26:43;2.78;;;1.90;;
27265;SDS011;14766;51.380;13.762;2023-05-10T02:29:13;2.83;;;2.00;;
27265;SDS011;14766;51.380;13.762;2023-05-10T02:31:41;4.45;;;2.20;;
27265;SDS011;14766;51.380;13.762;2023-05-10T02:34:10;2.17;;;1.80;;
27265;SDS011;14766;51.380;13.762;2023-05-10T02:36:38;4.40;;;1.88;;
27265;SDS011;14766;51.380;13.762;2023-05-10T02:39:06;2.85;;;1.80;;
27265;SDS011;14766;51.380;13.762;2023-05-10T02:41:40;2.25;;;1.73;;
27265;SDS011;14766;51.380;13.762;2023-05-10T02:44:08;2.53;;;1.92;;
27265;SDS011;14766;51.380;13.762;2023-05-10T02:46:37;2.50;;;1.65;;
27265;SDS011;14766;51.380;13.762;2023-05-10T02:49:04;2.85;;;1.70;;
27265;SDS011;14766;51.380;13.762;2023-05-10T02:51:32;2.42;;;1.90;;
27265;SDS011;14766;51.380;13.762;2023-05-10T02:54:12;1.92;;;1.77;;
27265;SDS011;14766;51.380;13.762;2023-05-10T02:56:50;3.75;;;1.98;;
27265;SDS011;14766;51.380;13.762;2023-05-10T02:59:20;2.38;;;2.00;;
27265;SDS011;14766;51.380;13.762;2023-05-10T03:01:47;2.30;;;1.77;;
27265;SDS011;14766;51.380;13.762;2023-05-10T03:04:14;2.88;;;2.28;;
27265;SDS011;14766;51.380;13.762;2023-05-10T03:06:41;3.08;;;2.20;;
27265;SDS011;14766;51.380;13.762;2023-05-10T03:09:09;3.67;;;1.83;;
27265;SDS011;14766;51.380;13.762;2023-05-10T03:14:21;1.95;;;1.75;;
27265;SDS011;14766;51.380;13.762;2023-05-10T03:17:11;2.63;;;2.17;;
27265;SDS011;14766;51.380;13.762;2023-05-10T03:19:56;3.22;;;2.20;;
27265;SDS011;14766;51.380;13.762;2023-05-10T03:22:26;2.35;;;1.90;;
27265;SDS011;14766;51.380;13.762;2023-05-10T03:24:58;1.95;;;1.70;;
27265;SDS011;14766;51.380;13.762;2023-05-10T03:27:31;2.65;;;1.63;;
27265;SDS011;14766;51.380;13.762;2023-05-10T03:30:01;4.13;;;2.25;;
27265;SDS011;14766;51.380;13.762;2023-05-10T03:32:32;4.05;;;2.10;;
27265;SDS011;14766;51.380;13.762;2023-05-10T03:35:01;3.10;;;2.00;;
27265;SDS011;14766;51.380;13.762;2023-05-10T03:37:34;2.13;;;1.90;;
27265;SDS011;14766;51.380;13.762;2023-05-10T03:40:03;2.80;;;2.00;;
27265;SDS011;14766;51.380;13.762;2023-05-10T03:42:33;2.25;;;1.75;;
27265;SDS011;14766;51.380;13.762;2023-05-10T03:45:00;3.22;;;2.05;;
27265;SDS011;14766;51.380;13.762;2023-05-10T03:47:27;2.25;;;1.92;;
27265;SDS011;14766;51.380;13.762;2023-05-10T03:49:57;3.40;;;2.05;;
27265;SDS011;14766;51.380;13.762;2023-05-10T03:52:24;4.10;;;2.13;;
27265;SDS011;14766;51.380;13.762;2023-05-10T03:54:51;3.42;;;1.90;;
27265;SDS011;14766;51.380;13.762;2023-05-10T03:57:19;3.10;;;2.10;;
27265;SDS011;14766;51.380;13.762;2023-05-10T03:59:46;3.63;;;2.00;;
27265;SDS011;14766;51.380;13.762;2023-05-10T04:02:13;2.85;;;2.13;;
27265;SDS011;14766;51.380;13.762;2023-05-10T04:04:40;2.97;;;2.10;;
27265;SDS011;14766;51.380;13.762;2023-05-10T04:07:08;2.92;;;2.33;;
27265;SDS011;14766;51.380;13.762;2023-05-10T04:09:36;2.28;;;1.92;;
27265;SDS011;14766;51.380;13.762;2023-05-10T04:12:03;3.60;;;1.83;;
27265;SDS011;14766;51.380;13.762;2023-05-10T04:14:30;2.50;;;2.15;;
27265;SDS011;14766;51.380;13.762;2023-05-10T04:16:57;4.40;;;2.28;;
27265;SDS011;14766;51.380;13.762;2023-05-10T04:19:28;3.38;;;2.13;;
27265;SDS011;14766;51.380;13.762;2023-05-10T04:21:56;2.80;;;1.95;;
27265;SDS011;14766;51.380;13.762;2023-05-10T04:24:24;4.40;;;2.10;;
27265;SDS011;14766;51.380;13.762;2023-05-10T04:26:51;2.22;;;1.95;;
27265;SDS011;14766;51.380;13.762;2023-05-10T04:29:23;3.03;;;1.75;;
27265;SDS011;14766;51.380;13.762;2023-05-10T04:31:50;4.43;;;2.00;;
27265;SDS011;14766;51.380;13.762;2023-05-10T04:34:20;3.17;;;2.38;;
27265;SDS011;14766;51.380;13.762;2023-05-10T04:36:50;2.60;;;2.20;;
27265;SDS011;14766;51.380;13.762;2023-05-10T04:39:17;2.58;;;2.22;;
27265;SDS011;14766;51.380;13.762;2023-05-10T04:41:44;2.53;;;2.10;;
27265;SDS011;14766;51.380;13.762;2023-05-10T04:44:11;1.98;;;1.77;;
27265;SDS011;14766;51.380;13.762;2023-05-10T04:46:38;11.70;;;8.85;;
27265;SDS011;14766;51.380;13.762;2023-05-10T04:49:06;9.63;;;7.22;;
27265;SDS011;14766;51.380;13.762;2023-05-10T04:51:33;5.38;;;3.72;;
27265;SDS011;14766;51.380;13.762;2023-05-10T04:54:00;3.28;;;2.28;;
27265;SDS011;14766;51.380;13.762;2023-05-10T04:56:32;2.78;;;1.90;;
27265;SDS011;14766;51.380;13.762;2023-05-10T04:59:01;2.47;;;1.50;;
27265;SDS011;14766;51.380;13.762;2023-05-10T05:01:29;4.30;;;1.73;;
27265;SDS011;14766;51.380;13.762;2023-05-10T05:03:56;2.67;;;1.75;;
27265;SDS011;14766;51.380;13.762;2023-05-10T05:06:26;2.28;;;1.90;;
27265;SDS011;14766;51.380;13.762;2023-05-10T05:08:53;1.98;;;1.45;;
27265;SDS011;14766;51.380;13.762;2023-05-10T05:11:22;2.92;;;1.58;;
27265;SDS011;14766;51.380;13.762;2023-05-10T05:13:49;3.45;;;1.50;;
27265;SDS011;14766;51.380;13.762;2023-05-10T05:16:18;2.10;;;1.90;;
27265;SDS011;14766;51.380;13.762;2023-05-10T05:18:45;4.10;;;1.60;;
27265;SDS011;14766;51.380;13.762;2023-05-10T05:21:16;3.88;;;1.73;;
27265;SDS011;14766;51.380;13.762;2023-05-10T05:23:43;3.80;;;1.60;;
27265;SDS011;14766;51.380;13.762;2023-05-10T05:26:12;2.13;;;1.60;;
27265;SDS011;14766;51.380;13.762;2023-05-10T05:28:39;2.30;;;1.55;;
27265;SDS011;14766;51.380;13.762;2023-05-10T05:31:06;4.43;;;2.03;;
27265;SDS011;14766;51.380;13.762;2023-05-10T05:33:36;2.08;;;1.63;;
27265;SDS011;14766;51.380;13.762;2023-05-10T05:36:04;2.65;;;1.60;;
27265;SDS011;14766;51.380;13.762;2023-05-10T05:38:32;3.20;;;1.80;;
27265;SDS011;14766;51.380;13.762;2023-05-10T05:40:59;2.38;;;1.60;;
27265;SDS011;14766;51.380;13.762;2023-05-10T05:43:26;1.63;;;1.48;;
27265;SDS011;14766;51.380;13.762;2023-05-10T05:45:53;1.70;;;1.60;;
27265;SDS011;14766;51.380;13.762;2023-05-10T05:48:21;1.73;;;1.63;;
27265;SDS011;14766;51.380;13.762;2023-05-10T05:50:48;2.53;;;1.80;;
27265;SDS011;14766;51.380;13.762;2023-05-10T05:53:15;3.10;;;1.60;;
27265;SDS011;14766;51.380;13.762;2023-05-10T05:55:52;2.22;;;1.65;;
27265;SDS011;14766;51.380;13.762;2023-05-10T05:58:20;4.57;;;1.70;;
27265;SDS011;14766;51.380;13.762;2023-05-10T06:00:48;4.70;;;1.90;;
27265;SDS011;14766;51.380;13.762;2023-05-10T06:03:16;2.40;;;1.65;;
27265;SDS011;14766;51.380;13.762;2023-05-10T06:05:44;4.55;;;1.70;;
27265;SDS011;14766;51.380;13.762;2023-05-10T06:08:11;2.88;;;1.90;;
27265;SDS011;14766;51.380;13.762;2023-05-10T06:10:38;2.83;;;1.70;;
27265;SDS011;14766;51.380;13.762;2023-05-10T06:13:05;5.05;;;2.20;;
27265;SDS011;14766;51.380;13.762;2023-05-10T06:15:32;1.85;;;1.50;;
27265;SDS011;14766;51.380;13.762;2023-05-10T06:18:00;3.80;;;1.98;;
27265;SDS011;14766;51.380;13.762;2023-05-10T06:20:27;3.70;;;1.80;;
27265;SDS011;14766;51.380;13.762;2023-05-10T06:22:54;3.25;;;1.80;;
27265;SDS011;14766;51.380;13.762;2023-05-10T06:25:21;2.72;;;1.75;;
27265;SDS011;14766;51.380;13.762;2023-05-10T06:27:48;2.55;;;1.73;;
27265;SDS011;14766;51.380;13.762;2023-05-10T06:30:19;2.95;;;1.88;;
27265;SDS011;14766;51.380;13.762;2023-05-10T06:32:46;3.15;;;1.80;;
27265;SDS011;14766;51.380;13.762;2023-05-10T06:35:13;2.63;;;1.83;;
27265;SDS011;14766;51.380;13.762;2023-05-10T06:37:41;2.67;;;1.80;;
27265;SDS011;14766;51.380;13.762;2023-05-10T06:40:08;1.75;;;1.40;;
27265;SDS011;14766;51.380;13.762;2023-05-10T06:42:36;2.15;;;1.63;;
27265;SDS011;14766;51.380;13.762;2023-05-10T06:45:03;2.67;;;1.80;;
27265;SDS011;14766;51.380;13.762;2023-05-10T06:47:33;2.78;;;1.77;;
27265;SDS011;14766;51.380;13.762;2023-05-10T06:50:04;2.10;;;1.67;;
27265;SDS011;14766;51.380;13.762;2023-05-10T06:52:31;3.13;;;1.58;;
27265;SDS011;14766;51.380;13.762;2023-05-10T06:54:59;3.28;;;1.63;;
27265;SDS011;14766;51.380;13.762;2023-05-10T06:57:26;2.65;;;2.10;;
27265;SDS011;14766;51.380;13.762;2023-05-10T06:59:58;2.47;;;1.80;;
27265;SDS011;14766;51.380;13.762;2023-05-10T07:02:25;4.35;;;1.90;;
27265;SDS011;14766;51.380;13.762;2023-05-10T07:04:53;2.60;;;1.73;;
27265;SDS011;14766;51.380;13.762;2023-05-10T07:07:20;5.05;;;2.10;;
27265;SDS011;14766;51.380;13.762;2023-05-10T07:09:47;4.22;;;3.13;;
27265;SDS011;14766;51.380;13.762;2023-05-10T07:12:16;2.78;;;1.90;;
27265;SDS011;14766;51.380;13.762;2023-05-10T07:14:43;1.55;;;1.40;;
27265;SDS011;14766;51.380;13.762;2023-05-10T07:17:10;3.97;;;1.50;;
27265;SDS011;14766;51.380;13.762;2023-05-10T07:19:37;2.53;;;1.92;;
27265;SDS011;14766;51.380;13.762;2023-05-10T07:22:04;5.45;;;2.00;;
27265;SDS011;14766;51.380;13.762;2023-05-10T07:24:32;2.03;;;1.70;;
27265;SDS011;14766;51.380;13.762;2023-05-10T07:27:00;3.83;;;1.80;;
27265;SDS011;14766;51.380;13.762;2023-05-10T07:29:27;4.05;;;1.95;;
27265;SDS011;14766;51.380;13.762;2023-05-10T07:31:55;3.15;;;1.58;;
27265;SDS011;14766;51.380;13.762;2023-05-10T07:34:24;2.13;;;1.60;;
27265;SDS011;14766;51.380;13.762;2023-05-10T07:36:52;2.78;;;1.88;;
27265;SDS011;14766;51.380;13.762;2023-05-10T07:39:19;2.78;;;1.70;;
27265;SDS011;14766;51.380;13.762;2023-05-10T07:41:54;3.05;;;1.85;;
27265;SDS011;14766;51.380;13.762;2023-05-10T07:44:23;3.90;;;2.03;;
27265;SDS011;14766;51.380;13.762;2023-05-10T07:46:50;2.25;;;1.65;;
27265;SDS011;14766;51.380;13.762;2023-05-10T07:49:17;2.38;;;1.70;;
27265;SDS011;14766;51.380;13.762;2023-05-10T07:51:44;5.68;;;1.90;;
27265;SDS011;14766;51.380;13.762;2023-05-10T07:54:11;2.25;;;1.85;;
27265;SDS011;14766;51.380;13.762;2023-05-10T07:56:39;2.78;;;1.75;;
27265;SDS011;14766;51.380;13.762;2023-05-10T07:59:08;1.73;;;1.60;;
27265;SDS011;14766;51.380;13.762;2023-05-10T08:01:38;3.40;;;2.03;;
27265;SDS011;14766;51.380;13.762;2023-05-10T08:04:05;2.38;;;1.60;;
27265;SDS011;14766;51.380;13.762;2023-05-10T08:06:32;2.03;;;1.50;;
27265;SDS011;14766;51.380;13.762;2023-05-10T08:09:01;5.50;;;2.40;;
27265;SDS011;14766;51.380;13.762;2023-05-10T08:11:28;2.63;;;2.08;;
27265;SDS011;14766;51.380;13.762;2023-05-10T08:14:00;1.73;;;1.63;;
27265;SDS011;14766;51.380;13.762;2023-05-10T08:16:27;3.83;;;1.67;;
27265;SDS011;14766;51.380;13.762;2023-05-10T08:18:54;2.65;;;1.50;;
27265;SDS011;14766;51.380;13.762;2023-05-10T08:21:21;2.10;;;1.73;;
27265;SDS011;14766;51.380;13.762;2023-05-10T08:23:48;3.28;;;1.63;;
27265;SDS011;14766;51.380;13.762;2023-05-10T08:26:16;2.22;;;1.77;;
27265;SDS011;14766;51.380;13.762;2023-05-10T08:28:43;1.95;;;1.75;;
27265;SDS011;14766;51.380;13.762;2023-05-10T08:31:10;1.88;;;1.60;;
27265;SDS011;14766;51.380;13.762;2023-05-10T08:33:37;3.70;;;1.95;;
27265;SDS011;14766;51.380;13.762;2023-05-10T08:36:04;2.95;;;1.65;;
27265;SDS011;14766;51.380;13.762;2023-05-10T08:38:31;2.47;;;1.95;;
27265;SDS011;14766;51.380;13.762;2023-05-10T08:40:58;3.92;;;1.77;;
27265;SDS011;14766;51.380;13.762;2023-05-10T08:43:27;3.17;;;1.90;;
27265;SDS011;14766;51.380;13.762;2023-05-10T08:45:59;3.45;;;1.58;;
27265;SDS011;14766;51.380;13.762;2023-05-10T08:48:30;1.83;;;1.42;;
27265;SDS011;14766;51.380;13.762;2023-05-10T08:51:00;2.45;;;1.80;;
27265;SDS011;14766;51.380;13.762;2023-05-10T08:53:29;2.10;;;1.60;;
27265;SDS011;14766;51.380;13.762;2023-05-10T08:55:58;1.98;;;1.70;;
27265;SDS011;14766;51.380;13.762;2023-05-10T08:58:26;2.30;;;1.40;;
27265;SDS011;14766;51.380;13.762;2023-05-10T09:00:54;2.58;;;1.50;;
27265;SDS011;14766;51.380;13.762;2023-05-10T09:03:23;2.15;;;1.85;;
27265;SDS011;14766;51.380;13.762;2023-05-10T09:05:50;2.00;;;1.80;;
27265;SDS011;14766;51.380;13.762;2023-05-10T09:08:17;2.08;;;1.60;;
27265;SDS011;14766;51.380;13.762;2023-05-10T09:10:45;2.25;;;1.50;;
27265;SDS011;14766;51.380;13.762;2023-05-10T09:13:18;1.70;;;1.60;;
27265;SDS011;14766;51.380;13.762;2023-05-10T09:15:46;2.25;;;1.98;;
27265;SDS011;14766;51.380;13.762;2023-05-10T09:18:14;3.65;;;1.60;;
27265;SDS011;14766;51.380;13.762;2023-05-10T09:20:41;2.03;;;1.67;;
27265;SDS011;14766;51.380;13.762;2023-05-10T09:23:08;2.83;;;1.73;;
27265;SDS011;14766;51.380;13.762;2023-05-10T09:25:35;3.10;;;1.70;;
27265;SDS011;14766;51.380;13.762;2023-05-10T09:28:08;2.20;;;1.90;;
27265;SDS011;14766;51.380;13.762;2023-05-10T09:30:36;3.03;;;1.80;;
27265;SDS011;14766;51.380;13.762;2023-05-10T09:33:03;2.15;;;1.67;;
27265;SDS011;14766;51.380;13.762;2023-05-10T09:35:31;2.38;;;1.73;;
27265;SDS011;14766;51.380;13.762;2023-05-10T09:38:02;2.63;;;1.83;;
27265;SDS011;14766;51.380;13.762;2023-05-10T09:40:30;3.10;;;2.00;;
27265;SDS011;14766;51.380;13.762;2023-05-10T09:43:06;2.63;;;1.80;;
27265;SDS011;14766;51.380;13.762;2023-05-10T09:45:34;2.47;;;1.90;;
27265;SDS011;14766;51.380;13.762;2023-05-10T09:48:04;3.38;;;1.90;;
27265;SDS011;14766;51.380;13.762;2023-05-10T09:50:32;1.90;;;1.70;;
27265;SDS011;14766;51.380;13.762;2023-05-10T09:53:01;1.70;;;1.60;;
27265;SDS011;14766;51.380;13.762;2023-05-10T09:55:43;5.28;;;2.00;;
27265;SDS011;14766;51.380;13.762;2023-05-10T09:58:12;2.33;;;1.90;;
27265;SDS011;14766;51.380;13.762;2023-05-10T10:00:44;3.63;;;1.70;;
27265;SDS011;14766;51.380;13.762;2023-05-10T10:03:15;2.42;;;1.80;;
27265;SDS011;14766;51.380;13.762;2023-05-10T10:05:44;2.20;;;1.88;;
27265;SDS011;14766;51.380;13.762;2023-05-10T10:08:12;4.05;;;1.85;;
27265;SDS011;14766;51.380;13.762;2023-05-10T10:10:40;2.90;;;1.90;;
27265;SDS011;14766;51.380;13.762;2023-05-10T10:13:07;3.47;;;2.03;;
27265;SDS011;14766;51.380;13.762;2023-05-10T10:15:36;3.03;;;2.40;;
27265;SDS011;14766;51.380;13.762;2023-05-10T10:18:03;2.80;;;1.70;;
27265;SDS011;14766;51.380;13.762;2023-05-10T10:20:32;3.72;;;1.70;;
27265;SDS011;14766;51.380;13.762;2023-05-10T10:22:59;3.58;;;1.83;;
27265;SDS011;14766;51.380;13.762;2023-05-10T10:25:26;3.03;;;2.00;;
27265;SDS011;14766;51.380;13.762;2023-05-10T10:36:16;2.15;;;1.95;;
27265;SDS011;14766;51.380;13.762;2023-05-10T10:52:32;2.28;;;1.80;;
27265;SDS011;14766;51.380;13.762;2023-05-10T10:57:50;2.80;;;2.17;;
27265;SDS011;14766;51.380;13.762;2023-05-10T11:00:30;3.58;;;2.10;;
27265;SDS011;14766;51.380;13.762;2023-05-10T11:03:04;2.67;;;2.00;;
27265;SDS011;14766;51.380;13.762;2023-05-10T11:11:19;2.65;;;2.15;;
27265;SDS011;14766;51.380;13.762;2023-05-10T11:13:43;2.33;;;1.88;;
27265;SDS011;14766;51.380;13.762;2023-05-10T11:16:19;3.08;;;2.10;;
27265;SDS011;14766;51.380;13.762;2023-05-10T11:18:58;2.55;;;1.92;;
27265;SDS011;14766;51.380;13.762;2023-05-10T11:21:30;3.45;;;2.03;;
27265;SDS011;14766;51.380;13.762;2023-05-10T11:23:59;2.67;;;2.33;;
27265;SDS011;14766;51.380;13.762;2023-05-10T11:26:31;2.13;;;1.80;;
27265;SDS011;14766;51.380;13.762;2023-05-10T11:29:01;3.60;;;2.08;;
27265;SDS011;14766;51.380;13.762;2023-05-10T11:31:30;3.13;;;2.42;;
27265;SDS011;14766;51.380;13.762;2023-05-10T11:33:58;2.25;;;1.90;;
27265;SDS011;14766;51.380;13.762;2023-05-10T11:36:29;3.85;;;2.05;;
27265;SDS011;14766;51.380;13.762;2023-05-10T11:38:59;3.72;;;2.25;;
27265;SDS011;14766;51.380;13.762;2023-05-10T11:41:28;2.22;;;1.90;;
27265;SDS011;14766;51.380;13.762;2023-05-10T11:43:56;2.20;;;2.00;;
27265;SDS011;14766;51.380;13.762;2023-05-10T11:46:25;2.88;;;2.03;;
27265;SDS011;14766;51.380;13.762;2023-05-10T11:48:57;2.22;;;1.90;;
27265;SDS011;14766;51.380;13.762;2023-05-10T11:51:33;2.28;;;2.08;;
27265;SDS011;14766;51.380;13.762;2023-05-10T11:54:06;3.75;;;2.30;;
27265;SDS011;14766;51.380;13.762;2023-05-10T11:56:36;3.60;;;1.80;;
27265;SDS011;14766;51.380;13.762;2023-05-10T11:59:03;2.30;;;1.90;;
27265;SDS011;14766;51.380;13.762;2023-05-10T12:01:31;2.17;;;1.90;;
27265;SDS011;14766;51.380;13.762;2023-05-10T12:03:58;2.50;;;2.20;;
27265;SDS011;14766;51.380;13.762;2023-05-10T12:06:28;3.90;;;2.22;;
27265;SDS011;14766;51.380;13.762;2023-05-10T12:08:57;3.38;;;2.00;;
27265;SDS011;14766;51.380;13.762;2023-05-10T12:11:26;2.78;;;2.20;;
27265;SDS011;14766;51.380;13.762;2023-05-10T12:13:55;3.00;;;2.03;;
27265;SDS011;14766;51.380;13.762;2023-05-10T12:16:24;2.65;;;2.00;;
27265;SDS011;14766;51.380;13.762;2023-05-10T12:18:57;2.97;;;2.00;;
27265;SDS011;14766;51.380;13.762;2023-05-10T12:21:26;3.08;;;1.90;;
27265;SDS011;14766;51.380;13.762;2023-05-10T12:24:00;2.25;;;1.90;;
27265;SDS011;14766;51.380;13.762;2023-05-10T12:26:29;4.25;;;2.28;;
27265;SDS011;14766;51.380;13.762;2023-05-10T12:29:18;1.88;;;1.60;;
27265;SDS011;14766;51.380;13.762;2023-05-10T12:31:49;2.90;;;2.33;;
27265;SDS011;14766;51.380;13.762;2023-05-10T12:34:51;2.03;;;1.77;;
27265;SDS011;14766;51.380;13.762;2023-05-10T12:37:12;2.38;;;2.17;;
27265;SDS011;14766;51.380;13.762;2023-05-10T12:39:43;1.95;;;1.73;;
27265;SDS011;14766;51.380;13.762;2023-05-10T12:42:12;2.72;;;2.40;;
27265;SDS011;14766;51.380;13.762;2023-05-10T12:44:40;4.18;;;2.00;;
27265;SDS011;14766;51.380;13.762;2023-05-10T12:47:07;3.55;;;2.03;;
27265;SDS011;14766;51.380;13.762;2023-05-10T12:49:34;3.35;;;2.20;;
27265;SDS011;14766;51.380;13.762;2023-05-10T12:52:01;4.20;;;2.47;;
27265;SDS011;14766;51.380;13.762;2023-05-10T12:54:29;2.30;;;2.10;;
27265;SDS011;14766;51.380;13.762;2023-05-10T12:56:56;2.30;;;2.10;;
27265;SDS011;14766;51.380;13.762;2023-05-10T12:59:23;3.33;;;1.88;;
27265;SDS011;14766;51.380;13.762;2023-05-10T13:01:50;2.65;;;2.00;;
27265;SDS011;14766;51.380;13.762;2023-05-10T13:04:17;2.20;;;1.98;;
27265;SDS011;14766;51.380;13.762;2023-05-10T13:06:45;2.65;;;2.25;;
27265;SDS011;14766;51.380;13.762;2023-05-10T13:09:12;4.03;;;2.55;;
27265;SDS011;14766;51.380;13.762;2023-05-10T13:11:40;2.35;;;2.15;;
27265;SDS011;14766;51.380;13.762;2023-05-10T13:14:07;2.42;;;2.22;;
27265;SDS011;14766;51.380;13.762;2023-05-10T13:16:35;2.95;;;2.17;;
27265;SDS011;14766;51.380;13.762;2023-05-10T13:19:02;2.95;;;2.38;;
27265;SDS011;14766;51.380;13.762;2023-05-10T13:21:29;3.63;;;2.05;;
27265;SDS011;14766;51.380;13.762;2023-05-10T13:23:56;3.15;;;2.38;;
27265;SDS011;14766;51.380;13.762;2023-05-10T13:26:24;2.60;;;2.03;;
27265;SDS011;14766;51.380;13.762;2023-05-10T13:28:51;3.58;;;2.40;;
27265;SDS011;14766;51.380;13.762;2023-05-10T13:31:18;2.63;;;2.00;;
27265;SDS011;14766;51.380;13.762;2023-05-10T13:33:50;3.67;;;2.45;;
27265;SDS011;14766;51.380;13.762;2023-05-10T13:36:18;3.70;;;2.90;;
27265;SDS011;14766;51.380;13.762;2023-05-10T13:38:45;7.10;;;3.83;;
27265;SDS011;14766;51.380;13.762;2023-05-10T13:41:12;6.43;;;3.97;;
27265;SDS011;14766;51.380;13.762;2023-05-10T13:43:39;4.20;;;3.60;;
27265;SDS011;14766;51.380;13.762;2023-05-10T13:46:07;4.03;;;3.45;;
27265;SDS011;14766;51.380;13.762;2023-05-10T13:48:35;3.90;;;3.50;;
27265;SDS011;14766;51.380;13.762;2023-05-10T13:51:04;4.10;;;2.80;;
27265;SDS011;14766;51.380;13.762;2023-05-10T13:53:31;4.10;;;3.03;;
27265;SDS011;14766;51.380;13.762;2023-05-10T13:55:58;3.83;;;3.20;;
27265;SDS011;14766;51.380;13.762;2023-05-10T13:58:25;5.20;;;3.17;;
27265;SDS011;14766;51.380;13.762;2023-05-10T14:00:53;4.18;;;3.25;;
27265;SDS011;14766;51.380;13.762;2023-05-10T14:03:19;4.78;;;3.60;;
27265;SDS011;14766;51.380;13.762;2023-05-10T14:05:47;7.28;;;3.95;;
27265;SDS011;14766;51.380;13.762;2023-05-10T14:08:14;3.78;;;3.40;;
27265;SDS011;14766;51.380;13.762;2023-05-10T14:10:42;4.40;;;3.65;;
27265;SDS011;14766;51.380;13.762;2023-05-10T14:13:09;4.18;;;3.40;;
27265;SDS011;14766;51.380;13.762;2023-05-10T14:15:36;4.15;;;3.70;;
27265;SDS011;14766;51.380;13.762;2023-05-10T14:18:03;5.25;;;3.70;;
27265;SDS011;14766;51.380;13.762;2023-05-10T14:20:32;4.82;;;4.00;;
27265;SDS011;14766;51.380;13.762;2023-05-10T14:23:00;4.85;;;3.08;;
27265;SDS011;14766;51.380;13.762;2023-05-10T14:25:27;3.80;;;3.17;;
27265;SDS011;14766;51.380;13.762;2023-05-10T14:27:55;4.80;;;3.17;;
27265;SDS011;14766;51.380;13.762;2023-05-10T14:30:22;3.70;;;3.10;;
27265;SDS011;14766;51.380;13.762;2023-05-10T14:32:49;4.05;;;3.30;;
27265;SDS011;14766;51.380;13.762;2023-05-10T14:35:16;3.47;;;3.00;;
27265;SDS011;14766;51.380;13.762;2023-05-10T14:37:45;4.35;;;3.22;;
27265;SDS011;14766;51.380;13.762;2023-05-10T14:40:12;3.20;;;2.88;;
27265;SDS011;14766;51.380;13.762;2023-05-10T14:42:41;3.47;;;2.60;;
27265;SDS011;14766;51.380;13.762;2023-05-10T14:45:10;2.70;;;2.22;;
27265;SDS011;14766;51.380;13.762;2023-05-10T14:47:37;3.22;;;2.90;;
27265;SDS011;14766;51.380;13.762;2023-05-10T14:50:04;3.50;;;2.45;;
27265;SDS011;14766;51.380;13.762;2023-05-10T14:52:32;3.47;;;2.38;;
27265;SDS011;14766;51.380;13.762;2023-05-10T14:54:59;3.55;;;2.70;;
27265;SDS011;14766;51.380;13.762;2023-05-10T14:57:27;2.60;;;2.30;;
27265;SDS011;14766;51.380;13.762;2023-05-10T14:59:56;3.95;;;2.55;;
27265;SDS011;14766;51.380;13.762;2023-05-10T15:02:23;2.60;;;2.40;;
27265;SDS011;14766;51.380;13.762;2023-05-10T15:04:51;3.03;;;2.50;;
27265;SDS011;14766;51.380;13.762;2023-05-10T15:07:18;3.00;;;2.47;;
27265;SDS011;14766;51.380;13.762;2023-05-10T15:09:45;3.03;;;2.67;;
27265;SDS011;14766;51.380;13.762;2023-05-10T15:12:12;3.42;;;2.70;;
27265;SDS011;14766;51.380;13.762;2023-05-10T15:14:39;3.05;;;2.42;;
27265;SDS011;14766;51.380;13.762;2023-05-10T15:17:06;2.80;;;2.60;;
27265;SDS011;14766;51.380;13.762;2023-05-10T15:19:34;3.03;;;2.72;;
27265;SDS011;14766;51.380;13.762;2023-05-10T15:22:01;2.30;;;2.10;;
27265;SDS011;14766;51.380;13.762;2023-05-10T15:24:30;2.17;;;1.98;;
27265;SDS011;14766;51.380;13.762;2023-05-10T15:26:57;2.30;;;2.10;;
27265;SDS011;14766;51.380;13.762;2023-05-10T15:29:24;3.45;;;1.70;;
27265;SDS011;14766;51.380;13.762;2023-05-10T15:31:51;3.00;;;2.20;;